createdAt,value
2019-02-23T00:02:14.200Z,100.00
2019-02-23T00:05:17.873Z,100.00
2019-02-23T00:08:21.219Z,100.00
2019-02-23T00:11:26.229Z,100.00
2019-02-23T00:14:29.465Z,100.00
2019-02-23T00:17:33.436Z,100.00
2019-02-23T00:20:36.548Z,100.00
2019-02-23T00:23:39.786Z,100.00
2019-02-23T00:26:43.300Z,100.00
2019-02-23T00:29:46.866Z,100.00
2019-02-23T00:32:50.385Z,100.00
2019-02-23T00:35:53.905Z,100.00
2019-02-23T00:38:57.120Z,100.00
2019-02-23T00:42:01.073Z,100.00
2019-02-23T00:45:04.458Z,100.00
2019-02-23T00:48:07.702Z,100.00
2019-02-23T00:51:10.779Z,100.00
2019-02-23T00:54:14.288Z,100.00
2019-02-23T00:57:18.115Z,100.00
2019-02-23T01:00:21.093Z,100.00
2019-02-23T01:03:24.153Z,100.00
2019-02-23T01:06:27.104Z,100.00
2019-02-23T01:09:30.306Z,100.00
2019-02-23T01:12:33.272Z,100.00
2019-02-23T01:15:36.553Z,100.00
2019-02-23T01:18:39.915Z,100.00
2019-02-23T01:21:43.196Z,100.00
2019-02-23T01:24:46.439Z,100.00
2019-02-23T01:27:50.068Z,100.00
2019-02-23T01:30:53.253Z,100.00
2019-02-23T01:33:56.200Z,100.00
2019-02-23T01:36:59.728Z,100.00
2019-02-23T01:40:03.332Z,100.00
2019-02-23T01:43:06.767Z,100.00
2019-02-23T01:46:10.013Z,100.00
2019-02-23T01:49:13.002Z,100.00
2019-02-23T01:52:15.959Z,100.00
2019-02-23T01:55:19.264Z,100.00
2019-02-23T01:58:22.507Z,100.00
2019-02-23T02:01:25.460Z,100.00
2019-02-23T02:04:28.699Z,100.00
2019-02-23T02:07:33.055Z,100.00
2019-02-23T02:10:36.012Z,100.00
2019-02-23T02:13:39.369Z,100.00
2019-02-23T02:16:42.393Z,100.00
2019-02-23T02:19:45.700Z,100.00
2019-02-23T02:22:48.919Z,100.00
2019-02-23T02:25:51.878Z,100.00
2019-02-23T02:28:55.129Z,100.00
2019-02-23T02:31:58.672Z,100.00
2019-02-23T02:35:01.655Z,100.00
2019-02-23T02:38:05.842Z,100.00
2019-02-23T02:41:08.794Z,100.00
2019-02-23T02:44:12.286Z,100.00
2019-02-23T02:47:16.281Z,100.00
2019-02-23T02:50:24.344Z,100.00
2019-02-23T02:53:24.864Z,100.00
2019-02-23T02:56:28.096Z,100.00
2019-02-23T02:59:31.044Z,100.00
2019-02-23T03:02:33.969Z,100.00
2019-02-23T03:05:37.526Z,100.00
2019-02-23T03:08:41.039Z,100.00
2019-02-23T03:11:44.681Z,100.00
2019-02-23T03:14:48.162Z,100.00
2019-02-23T03:17:51.684Z,100.00
2019-02-23T03:20:54.939Z,100.00
2019-02-23T03:23:58.721Z,100.00
2019-02-23T03:27:01.690Z,100.00
2019-02-23T03:30:06.571Z,100.00
2019-02-23T03:33:09.524Z,100.00
2019-02-23T03:36:12.501Z,100.00
2019-02-23T03:39:15.720Z,100.00
2019-02-23T03:42:19.268Z,100.00
2019-02-23T03:45:22.200Z,100.00
2019-02-23T03:48:25.481Z,100.00
2019-02-23T03:51:28.802Z,100.00
2019-02-23T03:54:32.339Z,100.00
2019-02-23T03:57:35.580Z,100.00
2019-02-23T04:00:40.082Z,100.00
2019-02-23T04:03:43.033Z,100.00
2019-02-23T04:06:45.974Z,100.00
2019-02-23T04:09:49.248Z,100.00
2019-02-23T04:12:52.794Z,100.00
2019-02-23T04:15:57.150Z,100.00
2019-02-23T04:19:00.736Z,100.00
2019-02-23T04:22:04.277Z,100.00
2019-02-23T04:25:08.086Z,100.00
2019-02-23T04:28:11.581Z,100.00
2019-02-23T04:31:15.187Z,100.00
2019-02-23T04:34:18.149Z,100.00
2019-02-23T04:37:21.373Z,100.00
2019-02-23T04:40:24.641Z,100.00
2019-02-23T04:43:27.912Z,100.00
2019-02-23T04:46:31.183Z,100.00
2019-02-23T04:49:34.136Z,100.00
2019-02-23T04:52:37.677Z,100.00
2019-02-23T04:55:40.987Z,100.00
2019-02-23T04:58:44.244Z,100.00
2019-02-23T05:01:47.529Z,100.00
2019-02-23T05:04:51.077Z,100.00
2019-02-23T05:07:54.015Z,100.00
2019-02-23T05:10:57.246Z,100.00
2019-02-23T05:14:00.429Z,100.00
2019-02-23T05:17:04.452Z,100.00
2019-02-23T05:20:07.488Z,100.00
2019-02-23T05:23:11.111Z,100.00
2019-02-23T05:26:14.452Z,100.00
2019-02-23T05:29:17.407Z,100.00
2019-02-23T05:32:20.634Z,100.00
2019-02-23T05:35:24.449Z,100.00
2019-02-23T05:38:28.006Z,100.00
2019-02-23T05:41:31.522Z,100.00
2019-02-23T05:44:34.457Z,100.00
2019-02-23T05:47:37.731Z,100.00
2019-02-23T05:50:40.963Z,100.00
2019-02-23T05:53:44.027Z,100.00
2019-02-23T05:56:47.318Z,100.00
2019-02-23T05:59:50.894Z,100.00
2019-02-23T06:02:54.162Z,100.00
2019-02-23T06:05:57.486Z,100.00
2019-02-23T06:09:00.451Z,100.00
2019-02-23T06:12:03.657Z,100.00
2019-02-23T06:15:10.886Z,100.00
2019-02-23T06:18:14.702Z,100.00
2019-02-23T06:21:17.983Z,100.00
2019-02-23T06:24:21.235Z,100.00
2019-02-23T06:27:24.475Z,100.00
2019-02-23T06:30:27.733Z,100.00
2019-02-23T06:33:30.692Z,100.00
2019-02-23T06:36:33.660Z,100.00
2019-02-23T06:39:36.627Z,100.00
2019-02-23T06:42:39.910Z,100.00
2019-02-23T06:45:42.889Z,100.00
2019-02-23T06:48:46.393Z,100.00
2019-02-23T06:51:49.593Z,100.00
2019-02-23T06:54:55.008Z,100.00
2019-02-23T06:57:58.202Z,100.00
2019-02-23T07:01:01.152Z,100.00
2019-02-23T07:04:04.372Z,100.00
2019-02-23T07:07:07.909Z,100.00
2019-02-23T07:10:11.288Z,100.00
2019-02-23T07:13:14.566Z,100.00
2019-02-23T07:16:17.833Z,100.00
2019-02-23T07:19:20.813Z,100.00
2019-02-23T07:22:24.092Z,100.00
2019-02-23T07:25:27.094Z,100.00
2019-02-23T07:28:30.667Z,100.00
2019-02-23T07:31:33.944Z,100.00
2019-02-23T07:34:37.439Z,100.00
2019-02-23T07:37:40.970Z,100.00
2019-02-23T07:40:44.197Z,100.00
2019-02-23T07:43:47.474Z,100.00
2019-02-23T07:46:50.953Z,100.00
2019-02-23T07:49:55.049Z,100.00
2019-02-23T07:52:58.233Z,100.00
2019-02-23T07:56:01.526Z,100.00
2019-02-23T07:59:04.672Z,100.00
2019-02-23T08:02:08.207Z,100.00
2019-02-23T08:05:11.714Z,100.00
2019-02-23T08:08:15.043Z,100.00
2019-02-23T08:11:18.416Z,100.00
2019-02-23T08:14:21.637Z,100.00
2019-02-23T08:17:24.643Z,100.00
2019-02-23T08:20:27.616Z,100.00
2019-02-23T08:23:30.880Z,100.00
2019-02-23T08:26:34.136Z,100.00
2019-02-23T08:29:37.144Z,100.00
2019-02-23T08:32:40.392Z,100.00
2019-02-23T08:35:43.363Z,100.00
2019-02-23T08:38:47.075Z,100.00
2019-02-23T08:41:50.961Z,100.00
2019-02-23T08:44:53.895Z,100.00
2019-02-23T08:47:57.155Z,100.00
2019-02-23T08:51:01.778Z,100.00
2019-02-23T08:54:05.419Z,100.00
2019-02-23T08:57:08.660Z,100.00
2019-02-23T09:00:13.881Z,100.00
2019-02-23T09:03:17.153Z,100.00
2019-02-23T09:06:21.212Z,100.00
2019-02-23T09:09:24.171Z,100.00
2019-02-23T09:12:27.555Z,100.00
2019-02-23T09:15:30.484Z,100.00
2019-02-23T09:18:33.470Z,100.00
2019-02-23T09:21:36.973Z,100.00
2019-02-23T09:24:40.463Z,100.00
2019-02-23T09:27:44.233Z,100.00
2019-02-23T09:30:48.449Z,100.00
2019-02-23T09:33:51.689Z,100.00
2019-02-23T09:36:55.901Z,100.00
2019-02-23T09:39:59.146Z,100.00
2019-02-23T09:43:02.204Z,100.00
2019-02-23T09:46:05.150Z,100.00
2019-02-23T09:49:08.721Z,100.00
2019-02-23T09:52:11.652Z,100.00
2019-02-23T09:55:14.736Z,100.00
2019-02-23T09:58:17.718Z,100.00
2019-02-23T10:01:20.648Z,100.00
2019-02-23T10:04:23.604Z,100.00
2019-02-23T10:07:26.603Z,100.00
2019-02-23T10:10:29.552Z,100.00
2019-02-23T10:13:32.815Z,100.00
2019-02-23T10:16:36.061Z,100.00
2019-02-23T10:19:40.359Z,100.00
2019-02-23T10:22:43.316Z,100.00
2019-02-23T10:25:47.270Z,100.00
2019-02-23T10:28:50.308Z,84.41
2019-02-23T10:31:53.297Z,91.26
2019-02-23T10:34:56.852Z,100.00
2019-02-23T10:37:59.871Z,100.00
2019-02-23T10:41:03.115Z,100.00
2019-02-23T10:44:06.683Z,100.00
2019-02-23T10:47:10.196Z,100.00
2019-02-23T10:50:13.627Z,100.00
2019-02-23T10:53:17.529Z,100.00
2019-02-23T10:56:21.329Z,100.00
2019-02-23T10:59:24.269Z,100.00
2019-02-23T11:02:27.232Z,100.00
2019-02-23T11:05:30.161Z,100.00
2019-02-23T11:08:33.126Z,100.00
2019-02-23T11:11:36.433Z,100.00
2019-02-23T11:14:39.683Z,100.00
2019-02-23T11:17:42.645Z,100.00
2019-02-23T11:20:45.598Z,98.98
2019-02-23T11:23:48.955Z,89.39
2019-02-23T11:26:52.539Z,83.13
2019-02-23T11:29:55.732Z,86.86
2019-02-23T11:32:58.968Z,90.73
2019-02-23T11:36:02.244Z,83.43
2019-02-23T11:39:06.051Z,86.11
2019-02-23T11:42:09.803Z,79.79
2019-02-23T11:45:12.950Z,77.70
2019-02-23T11:48:16.504Z,79.32
2019-02-23T11:51:19.792Z,86.30
2019-02-23T11:54:22.732Z,94.77
2019-02-23T11:57:25.764Z,87.91
2019-02-23T12:00:28.986Z,83.30
2019-02-23T12:03:31.945Z,79.48
2019-02-23T12:06:34.893Z,89.17
2019-02-23T12:09:37.866Z,81.97
2019-02-23T12:12:41.313Z,87.93
2019-02-23T12:15:44.517Z,79.12
2019-02-23T12:18:47.643Z,76.98
2019-02-23T12:21:50.999Z,70.84
2019-02-23T12:24:54.223Z,68.31
2019-02-23T12:27:57.508Z,74.75
2019-02-23T12:31:00.454Z,74.78
2019-02-23T12:34:03.847Z,68.95
2019-02-23T12:37:07.422Z,66.87
2019-02-23T12:40:10.582Z,71.79
2019-02-23T12:43:13.978Z,69.77
2019-02-23T12:46:17.511Z,71.69
2019-02-23T12:49:20.795Z,73.64
2019-02-23T12:52:24.331Z,76.38
2019-02-23T12:55:27.271Z,80.81
2019-02-23T12:58:30.428Z,76.66
2019-02-23T13:01:33.675Z,74.85
2019-02-23T13:04:36.722Z,100.00
2019-02-23T13:07:39.663Z,77.29
2019-02-23T13:10:42.662Z,64.80
2019-02-23T13:14:48.206Z,60.35
2019-02-23T13:18:28.318Z,57.03
2019-02-23T13:22:22.800Z,50.99
2019-02-23T13:26:11.750Z,48.16
2019-02-23T13:30:08.855Z,47.76
2019-02-23T13:33:53.595Z,46.68
2019-02-23T13:38:08.010Z,45.84
2019-02-23T13:41:49.090Z,46.60
2019-02-23T13:45:34.109Z,43.82
2019-02-23T13:49:34.215Z,51.85
2019-02-23T13:53:31.681Z,51.63
2019-02-23T13:57:40.800Z,49.91
2019-02-23T14:01:26.548Z,54.80
2019-02-23T14:05:47.940Z,54.43
2019-02-23T14:09:47.489Z,59.94
2019-02-23T14:13:55.787Z,58.47
2019-02-23T14:17:53.015Z,64.53
2019-02-23T14:21:35.459Z,65.96
2019-02-23T14:25:34.684Z,70.81
2019-02-23T14:29:29.343Z,74.90
2019-02-23T14:33:40.072Z,72.28
2019-02-23T14:37:11.156Z,72.36
2019-02-23T14:41:09.041Z,78.12
2019-02-23T14:44:59.304Z,74.71
2019-02-23T14:48:34.228Z,80.42
2019-02-23T14:52:48.909Z,82.05
2019-02-23T14:57:07.822Z,81.85
2019-02-23T15:01:03.659Z,83.99
2019-02-23T15:05:04.243Z,87.69
2019-02-23T15:09:17.544Z,86.46
2019-02-23T15:13:06.145Z,90.75
2019-02-23T15:16:55.183Z,92.38
2019-02-23T15:20:52.192Z,96.76
2019-02-23T15:25:13.276Z,94.37
2019-02-23T15:28:41.568Z,98.19
2019-02-23T15:33:08.285Z,96.07
2019-02-23T15:37:00.631Z,99.48
2019-02-23T15:40:56.142Z,100.00
2019-02-23T15:45:12.256Z,100.00
2019-02-23T15:49:26.417Z,100.00
2019-02-23T15:52:29.389Z,100.00
2019-02-23T15:55:33.295Z,100.00
2019-02-23T15:58:36.525Z,100.00
2019-02-23T16:01:39.571Z,100.00
2019-02-23T16:04:42.840Z,100.00
2019-02-23T16:07:45.801Z,100.00
2019-02-23T16:10:49.585Z,100.00
2019-02-23T16:13:53.102Z,100.00
2019-02-23T16:16:56.039Z,100.00
2019-02-23T16:19:59.275Z,100.00
2019-02-23T16:23:02.908Z,100.00
2019-02-23T16:26:05.947Z,100.00
2019-02-23T16:29:09.644Z,100.00
2019-02-23T16:32:12.899Z,100.00
2019-02-23T16:35:16.420Z,100.00
2019-02-23T16:38:19.386Z,100.00
2019-02-23T16:41:22.342Z,100.00
2019-02-23T16:44:25.497Z,100.00
2019-02-23T16:47:28.792Z,100.00
2019-02-23T16:50:32.039Z,100.00
2019-02-23T16:53:35.263Z,100.00
2019-02-23T16:56:38.225Z,100.00
2019-02-23T16:59:41.207Z,100.00
2019-02-23T17:02:44.348Z,100.00
2019-02-23T17:05:47.640Z,100.00
2019-02-23T17:08:50.638Z,100.00
2019-02-23T17:11:53.892Z,100.00
2019-02-23T17:14:57.173Z,100.00
2019-02-23T17:18:00.710Z,100.00
2019-02-23T17:21:03.669Z,100.00
2019-02-23T17:24:07.184Z,100.00
2019-02-23T17:27:10.153Z,100.00
2019-02-23T17:30:13.208Z,100.00
2019-02-23T17:33:16.165Z,100.00
2019-02-23T17:36:19.131Z,100.00
2019-02-23T17:39:22.468Z,100.00
2019-02-23T17:42:28.307Z,100.00
2019-02-23T17:45:30.383Z,100.00
2019-02-23T17:48:33.744Z,100.00
2019-02-23T17:51:37.503Z,100.00
2019-02-23T17:54:40.760Z,100.00
2019-02-23T17:57:44.372Z,100.00
2019-02-23T18:00:47.332Z,100.00
2019-02-23T18:03:51.565Z,100.00
2019-02-23T18:06:54.538Z,100.00
2019-02-23T18:09:57.522Z,100.00
2019-02-23T18:13:00.750Z,100.00
2019-02-23T18:16:03.741Z,100.00
2019-02-23T18:19:07.364Z,100.00
2019-02-23T18:22:11.012Z,100.00
2019-02-23T18:25:14.644Z,100.00
2019-02-23T18:28:17.721Z,100.00
2019-02-23T18:31:21.011Z,100.00
2019-02-23T18:34:25.335Z,100.00
2019-02-23T18:37:28.917Z,100.00
2019-02-23T18:40:32.698Z,100.00
2019-02-23T18:43:36.180Z,100.00
2019-02-23T18:46:39.227Z,100.00
2019-02-23T18:49:42.276Z,100.00
2019-02-23T18:52:45.833Z,100.00
2019-02-23T18:55:48.881Z,100.00
2019-02-23T18:58:52.038Z,100.00
2019-02-23T19:01:55.106Z,100.00
2019-02-23T19:04:58.711Z,100.00
2019-02-23T19:08:01.985Z,100.00
2019-02-23T19:11:05.298Z,100.00
2019-02-23T19:14:08.846Z,100.00
2019-02-23T19:17:12.175Z,100.00
2019-02-23T19:20:15.507Z,100.00
2019-02-23T19:23:18.599Z,100.00
2019-02-23T19:26:23.381Z,100.00
2019-02-23T19:29:26.926Z,100.00
2019-02-23T19:32:29.888Z,100.00
2019-02-23T19:35:32.921Z,100.00
2019-02-23T19:38:35.989Z,100.00
2019-02-23T19:41:39.312Z,100.00
2019-02-23T19:44:42.271Z,100.00
2019-02-23T19:47:45.300Z,100.00
2019-02-23T19:50:53.862Z,100.00
2019-02-23T19:53:58.349Z,100.00
2019-02-23T19:57:02.644Z,100.00
2019-02-23T20:00:07.266Z,100.00
2019-02-23T20:03:11.437Z,100.00
2019-02-23T20:06:15.166Z,100.00
2019-02-23T20:09:18.555Z,100.00
2019-02-23T20:12:21.618Z,100.00
2019-02-23T20:15:24.582Z,100.00
2019-02-23T20:18:27.966Z,100.00
2019-02-23T20:21:30.945Z,100.00
2019-02-23T20:24:33.991Z,100.00
2019-02-23T20:27:37.583Z,100.00
2019-02-23T20:30:40.659Z,100.00
2019-02-23T20:33:43.989Z,100.00
2019-02-23T20:36:47.065Z,100.00
2019-02-23T20:39:50.122Z,100.00
2019-02-23T20:42:53.183Z,100.00
2019-02-23T20:45:56.453Z,100.00
2019-02-23T20:48:59.783Z,100.00
2019-02-23T20:52:03.104Z,100.00
2019-02-23T20:55:06.706Z,100.00
2019-02-23T20:58:09.945Z,100.00
2019-02-23T21:01:12.917Z,100.00
2019-02-23T21:04:16.410Z,100.00
2019-02-23T21:07:20.183Z,100.00
2019-02-23T21:10:23.525Z,100.00
2019-02-23T21:13:26.573Z,100.00
2019-02-23T21:16:29.814Z,100.00
2019-02-23T21:19:33.034Z,100.00
2019-02-23T21:22:36.113Z,100.00
2019-02-23T21:25:40.169Z,100.00
2019-02-23T21:28:44.226Z,100.00
2019-02-23T21:31:47.265Z,100.00
2019-02-23T21:34:50.468Z,100.00
2019-02-23T21:37:53.701Z,100.00
2019-02-23T21:40:57.575Z,100.00
2019-02-23T21:44:00.512Z,100.00
2019-02-23T21:47:03.473Z,100.00
2019-02-23T21:50:06.705Z,100.00
2019-02-23T21:53:10.010Z,100.00
2019-02-23T21:56:13.001Z,100.00
2019-02-23T21:59:15.993Z,100.00
2019-02-23T22:02:19.245Z,100.00
2019-02-23T22:05:22.579Z,100.00
2019-02-23T22:08:25.911Z,100.00
2019-02-23T22:11:29.398Z,100.00
2019-02-23T22:14:32.931Z,100.00
2019-02-23T22:17:35.894Z,100.00
2019-02-23T22:20:39.103Z,100.00
2019-02-23T22:23:42.522Z,100.00
2019-02-23T22:26:45.482Z,100.00
2019-02-23T22:29:48.778Z,100.00
2019-02-23T22:32:51.762Z,100.00
2019-02-23T22:35:54.709Z,100.00
2019-02-23T22:38:57.943Z,100.00
2019-02-23T22:42:00.995Z,100.00
2019-02-23T22:45:04.339Z,100.00
2019-02-23T22:48:07.611Z,100.00
2019-02-23T22:51:10.841Z,100.00
2019-02-23T22:54:14.152Z,100.00
2019-02-23T22:57:17.424Z,100.00
2019-02-23T23:00:27.381Z,100.00
2019-02-23T23:03:32.502Z,100.00
2019-02-23T23:06:35.571Z,100.00
2019-02-23T23:09:38.808Z,100.00
2019-02-23T23:12:42.050Z,100.00
2019-02-23T23:15:45.343Z,100.00
2019-02-23T23:18:48.277Z,100.00
2019-02-23T23:21:51.251Z,100.00
2019-02-23T23:24:55.536Z,100.00
2019-02-23T23:27:58.855Z,100.00
2019-02-23T23:31:01.851Z,100.00
2019-02-23T23:34:05.433Z,100.00
2019-02-23T23:37:08.646Z,100.00
2019-02-23T23:40:11.868Z,100.00
2019-02-23T23:43:16.195Z,95.28
2019-02-23T23:46:19.740Z,98.27
2019-02-23T23:49:22.684Z,100.00
2019-02-23T23:52:26.310Z,100.00
2019-02-23T23:55:29.292Z,89.60
2019-02-23T23:58:32.768Z,95.39
